sensor_id;sensor_type;location;lat;lon;timestamp;pressure;altitude;pressure_sealevel;temperature;humidity
80321;BME280;69633;47.066;15.450;2023-05-29T00:01:51;97601.06;;;17.90;59.68
80321;BME280;69633;47.066;15.450;2023-05-29T00:04:18;97605.66;;;17.90;60.09
80321;BME280;69633;47.066;15.450;2023-05-29T00:06:45;97599.44;;;17.78;60.34
80321;BME280;69633;47.066;15.450;2023-05-29T00:09:19;97596.31;;;17.69;60.79
80321;BME280;69633;47.066;15.450;2023-05-29T00:11:46;97587.06;;;17.63;61.01
80321;BME280;69633;47.066;15.450;2023-05-29T00:14:18;97592.69;;;17.51;61.36
80321;BME280;69633;47.066;15.450;2023-05-29T00:16:46;97594.88;;;17.35;61.48
80321;BME280;69633;47.066;15.450;2023-05-29T00:19:13;97594.41;;;17.26;61.91
80321;BME280;69633;47.066;15.450;2023-05-29T00:21:39;97589.78;;;17.23;62.02
80321;BME280;69633;47.066;15.450;2023-05-29T00:24:07;97585.88;;;17.13;62.57
80321;BME280;69633;47.066;15.450;2023-05-29T00:26:34;97590.06;;;17.11;62.48
80321;BME280;69633;47.066;15.450;2023-05-29T00:29:03;97584.31;;;17.09;62.59
80321;BME280;69633;47.066;15.450;2023-05-29T00:31:30;97585.06;;;17.09;62.55
80321;BME280;69633;47.066;15.450;2023-05-29T00:33:58;97588.97;;;17.19;62.44
80321;BME280;69633;47.066;15.450;2023-05-29T00:36:25;97586.34;;;17.26;62.19
80321;BME280;69633;47.066;15.450;2023-05-29T00:38:52;97585.22;;;17.27;62.09
80321;BME280;69633;47.066;15.450;2023-05-29T00:41:18;97582.91;;;17.25;62.18
80321;BME280;69633;47.066;15.450;2023-05-29T00:43:45;97582.16;;;17.28;62.45
80321;BME280;69633;47.066;15.450;2023-05-29T00:46:18;97586.41;;;17.33;62.41
80321;BME280;69633;47.066;15.450;2023-05-29T00:48:50;97587.56;;;17.32;62.74
80321;BME280;69633;47.066;15.450;2023-05-29T00:51:19;97583.69;;;17.29;62.38
80321;BME280;69633;47.066;15.450;2023-05-29T00:53:46;97588.72;;;17.31;62.39
80321;BME280;69633;47.066;15.450;2023-05-29T00:56:20;97580.28;;;17.36;62.21
80321;BME280;69633;47.066;15.450;2023-05-29T00:58:48;97586.06;;;17.38;62.14
80321;BME280;69633;47.066;15.450;2023-05-29T01:01:17;97575.31;;;17.34;62.20
80321;BME280;69633;47.066;15.450;2023-05-29T01:03:43;97578.75;;;17.31;62.80
80321;BME280;69633;47.066;15.450;2023-05-29T01:06:10;97576.88;;;17.35;62.99
80321;BME280;69633;47.066;15.450;2023-05-29T01:08:37;97579.19;;;17.40;62.79
80321;BME280;69633;47.066;15.450;2023-05-29T01:14:52;97576.13;;;17.38;62.95
80321;BME280;69633;47.066;15.450;2023-05-29T01:26:32;97587.06;;;17.19;62.31
80321;BME280;69633;47.066;15.450;2023-05-29T01:29:03;97585.44;;;17.08;62.58
80321;BME280;69633;47.066;15.450;2023-05-29T01:31:34;97582.38;;;17.06;62.46
80321;BME280;69633;47.066;15.450;2023-05-29T01:34:01;97575.00;;;16.99;63.03
80321;BME280;69633;47.066;15.450;2023-05-29T01:36:28;97573.84;;;16.97;63.27
80321;BME280;69633;47.066;15.450;2023-05-29T01:38:58;97578.78;;;16.95;62.96
80321;BME280;69633;47.066;15.450;2023-05-29T01:41:33;97581.81;;;16.89;63.61
80321;BME280;69633;47.066;15.450;2023-05-29T01:44:07;97571.78;;;16.83;64.56
80321;BME280;69633;47.066;15.450;2023-05-29T01:46:43;97568.69;;;16.81;64.68
80321;BME280;69633;47.066;15.450;2023-05-29T01:49:12;97568.66;;;16.77;65.02
80321;BME280;69633;47.066;15.450;2023-05-29T01:51:39;97568.97;;;16.72;64.81
80321;BME280;69633;47.066;15.450;2023-05-29T01:54:07;97568.59;;;16.70;64.70
80321;BME280;69633;47.066;15.450;2023-05-29T01:56:34;97568.59;;;16.70;65.28
80321;BME280;69633;47.066;15.450;2023-05-29T01:59:03;97565.53;;;16.68;65.39
80321;BME280;69633;47.066;15.450;2023-05-29T02:01:31;97561.63;;;16.62;65.01
80321;BME280;69633;47.066;15.450;2023-05-29T02:03:59;97560.03;;;16.58;65.38
80321;BME280;69633;47.066;15.450;2023-05-29T02:06:25;97560.81;;;16.58;65.78
80321;BME280;69633;47.066;15.450;2023-05-29T02:08:52;97548.47;;;16.54;65.97
80321;BME280;69633;47.066;15.450;2023-05-29T02:11:20;97551.09;;;16.50;66.04
80321;BME280;69633;47.066;15.450;2023-05-29T02:13:46;97559.16;;;16.50;66.27
80321;BME280;69633;47.066;15.450;2023-05-29T02:16:13;97550.28;;;16.46;66.72
80321;BME280;69633;47.066;15.450;2023-05-29T02:18:39;97558.34;;;16.46;66.68
80321;BME280;69633;47.066;15.450;2023-05-29T02:21:07;97557.53;;;16.42;66.71
80321;BME280;69633;47.066;15.450;2023-05-29T02:23:34;97558.22;;;16.35;67.10
80321;BME280;69633;47.066;15.450;2023-05-29T02:26:01;97550.56;;;16.34;67.31
80321;BME280;69633;47.066;15.450;2023-05-29T02:28:28;97551.25;;;16.31;67.49
80321;BME280;69633;47.066;15.450;2023-05-29T02:30:54;97559.66;;;16.26;67.78
80321;BME280;69633;47.066;15.450;2023-05-29T02:33:20;97553.47;;;16.22;68.04
80321;BME280;69633;47.066;15.450;2023-05-29T02:35:45;97555.72;;;16.20;68.26
80321;BME280;69633;47.066;15.450;2023-05-29T02:38:12;97553.38;;;16.15;67.97
80321;BME280;69633;47.066;15.450;2023-05-29T02:40:38;97557.97;;;16.14;68.11
80321;BME280;69633;47.066;15.450;2023-05-29T02:43:07;97554.50;;;16.14;68.28
80321;BME280;69633;47.066;15.450;2023-05-29T02:45:34;97557.19;;;16.14;67.83
80321;BME280;69633;47.066;15.450;2023-05-29T02:48:00;97563.69;;;16.13;68.43
80321;BME280;69633;47.066;15.450;2023-05-29T02:50:26;97559.53;;;16.15;67.97
80321;BME280;69633;47.066;15.450;2023-05-29T02:52:55;97554.50;;;16.14;67.87
80321;BME280;69633;47.066;15.450;2023-05-29T02:55:27;97550.97;;;16.06;68.31
80321;BME280;69633;47.066;15.450;2023-05-29T02:57:53;97551.66;;;16.00;68.24
80321;BME280;69633;47.066;15.450;2023-05-29T03:00:21;97558.63;;;16.04;67.95
80321;BME280;69633;47.066;15.450;2023-05-29T03:02:48;97564.38;;;16.06;67.90
80321;BME280;69633;47.066;15.450;2023-05-29T03:05:14;97571.63;;;16.06;67.88
80321;BME280;69633;47.066;15.450;2023-05-29T03:07:40;97569.69;;;16.03;68.10
80321;BME280;69633;47.066;15.450;2023-05-29T03:10:09;97565.41;;;15.98;67.55
80321;BME280;69633;47.066;15.450;2023-05-29T03:12:40;97568.47;;;15.97;67.64
80321;BME280;69633;47.066;15.450;2023-05-29T03:15:09;97564.53;;;15.90;68.34
80321;BME280;69633;47.066;15.450;2023-05-29T03:17:35;97565.25;;;15.87;68.30
80321;BME280;69633;47.066;15.450;2023-05-29T03:20:06;97570.22;;;15.85;67.74
80321;BME280;69633;47.066;15.450;2023-05-29T03:22:37;97565.56;;;15.82;67.37
80321;BME280;69633;47.066;15.450;2023-05-29T03:25:08;97573.09;;;15.73;67.83
80321;BME280;69633;47.066;15.450;2023-05-29T03:27:38;97576.06;;;15.68;67.72
80321;BME280;69633;47.066;15.450;2023-05-29T03:30:06;97572.28;;;15.69;67.46
80321;BME280;69633;47.066;15.450;2023-05-29T03:32:34;97576.06;;;15.68;67.16
80321;BME280;69633;47.066;15.450;2023-05-29T03:35:00;97573.34;;;15.65;67.38
80321;BME280;69633;47.066;15.450;2023-05-29T03:37:27;97572.91;;;15.59;67.66
80321;BME280;69633;47.066;15.450;2023-05-29T03:39:58;97577.09;;;15.60;67.62
80321;BME280;69633;47.066;15.450;2023-05-29T03:42:25;97571.50;;;15.46;67.16
80321;BME280;69633;47.066;15.450;2023-05-29T03:44:51;97575.31;;;15.45;67.66
80321;BME280;69633;47.066;15.450;2023-05-29T03:47:22;97575.97;;;15.38;67.37
80321;BME280;69633;47.066;15.450;2023-05-29T03:49:49;97577.03;;;15.34;66.97
80321;BME280;69633;47.066;15.450;2023-05-29T03:52:16;97577.47;;;15.36;67.91
80321;BME280;69633;47.066;15.450;2023-05-29T03:54:41;97579.81;;;15.41;67.71
80321;BME280;69633;47.066;15.450;2023-05-29T03:57:20;97574.25;;;15.50;68.82
80321;BME280;69633;47.066;15.450;2023-05-29T03:59:46;97581.63;;;15.56;69.26
80321;BME280;69633;47.066;15.450;2023-05-29T04:02:14;97584.78;;;15.62;68.98
80321;BME280;69633;47.066;15.450;2023-05-29T04:04:42;97586.78;;;15.68;68.94
80321;BME280;69633;47.066;15.450;2023-05-29T04:07:09;97580.31;;;15.69;69.35
80321;BME280;69633;47.066;15.450;2023-05-29T04:09:36;97579.53;;;15.69;69.06
80321;BME280;69633;47.066;15.450;2023-05-29T04:12:03;97584.63;;;15.77;68.72
80321;BME280;69633;47.066;15.450;2023-05-29T04:14:33;97584.31;;;15.82;68.65
80321;BME280;69633;47.066;15.450;2023-05-29T04:16:59;97588.19;;;15.85;68.41
80321;BME280;69633;47.066;15.450;2023-05-29T04:19:26;97589.66;;;15.82;68.79
80321;BME280;69633;47.066;15.450;2023-05-29T04:21:53;97581.28;;;15.84;68.82
80321;BME280;69633;47.066;15.450;2023-05-29T04:24:19;97587.09;;;15.89;69.07
80321;BME280;69633;47.066;15.450;2023-05-29T04:26:47;97587.09;;;15.89;68.57
80321;BME280;69633;47.066;15.450;2023-05-29T04:29:14;97582.41;;;15.83;68.85
80321;BME280;69633;47.066;15.450;2023-05-29T04:31:40;97584.44;;;15.89;68.70
80321;BME280;69633;47.066;15.450;2023-05-29T04:34:08;97597.53;;;15.98;68.31
80321;BME280;69633;47.066;15.450;2023-05-29T04:36:35;97603.03;;;16.09;68.26
80321;BME280;69633;47.066;15.450;2023-05-29T04:39:05;97599.66;;;16.12;68.08
80321;BME280;69633;47.066;15.450;2023-05-29T04:41:32;97606.84;;;16.08;68.21
80321;BME280;69633;47.066;15.450;2023-05-29T04:43:58;97609.53;;;16.08;68.30
80321;BME280;69633;47.066;15.450;2023-05-29T04:46:25;97605.41;;;16.14;67.91
80321;BME280;69633;47.066;15.450;2023-05-29T04:48:53;97608.69;;;16.30;67.45
80321;BME280;69633;47.066;15.450;2023-05-29T04:51:21;97613.31;;;16.33;67.19
80321;BME280;69633;47.066;15.450;2023-05-29T04:53:48;97616.81;;;16.37;67.34
80321;BME280;69633;47.066;15.450;2023-05-29T04:56:14;97614.94;;;16.41;67.20
80321;BME280;69633;47.066;15.450;2023-05-29T04:58:41;97619.25;;;16.49;66.86
80321;BME280;69633;47.066;15.450;2023-05-29T05:01:08;97617.38;;;16.53;66.47
80321;BME280;69633;47.066;15.450;2023-05-29T05:03:37;97628.19;;;16.57;66.54
80321;BME280;69633;47.066;15.450;2023-05-29T05:06:04;97623.72;;;16.68;66.45
80321;BME280;69633;47.066;15.450;2023-05-29T05:08:34;97625.28;;;16.72;66.12
80321;BME280;69633;47.066;15.450;2023-05-29T05:11:02;97633.81;;;16.81;65.97
80321;BME280;69633;47.066;15.450;2023-05-29T05:13:29;97632.25;;;16.80;65.74
80321;BME280;69633;47.066;15.450;2023-05-29T05:15:56;97629.06;;;17.01;65.37
80321;BME280;69633;47.066;15.450;2023-05-29T05:18:21;97626.41;;;17.05;64.82
80321;BME280;69633;47.066;15.450;2023-05-29T05:20:48;97627.97;;;17.06;65.07
80321;BME280;69633;47.066;15.450;2023-05-29T05:23:19;97622.66;;;17.13;65.03
80321;BME280;69633;47.066;15.450;2023-05-29T05:25:46;97623.09;;;17.22;64.72
80321;BME280;69633;47.066;15.450;2023-05-29T05:28:11;97619.66;;;17.21;64.92
80321;BME280;69633;47.066;15.450;2023-05-29T05:30:39;97627.31;;;17.19;64.38
80321;BME280;69633;47.066;15.450;2023-05-29T05:33:06;97626.59;;;17.26;64.49
80321;BME280;69633;47.066;15.450;2023-05-29T05:35:32;97620.50;;;17.29;64.44
80321;BME280;69633;47.066;15.450;2023-05-29T05:38:00;97615.56;;;17.34;64.02
80321;BME280;69633;47.066;15.450;2023-05-29T05:40:26;97632.88;;;17.44;63.87
80321;BME280;69633;47.066;15.450;2023-05-29T05:42:53;97623.88;;;17.63;63.46
80321;BME280;69633;47.066;15.450;2023-05-29T05:45:19;97621.34;;;17.80;62.64
80321;BME280;69633;47.066;15.450;2023-05-29T05:47:47;97625.19;;;17.83;62.82
80321;BME280;69633;47.066;15.450;2023-05-29T05:50:13;97628.63;;;17.83;62.34
80321;BME280;69633;47.066;15.450;2023-05-29T05:52:40;97625.53;;;17.81;62.68
80321;BME280;69633;47.066;15.450;2023-05-29T05:55:08;97632.97;;;17.99;62.15
80321;BME280;69633;47.066;15.450;2023-05-29T05:57:36;97635.13;;;18.44;60.89
80321;BME280;69633;47.066;15.450;2023-05-29T06:00:04;97637.53;;;18.63;60.13
80321;BME280;69633;47.066;15.450;2023-05-29T06:02:34;97626.84;;;18.77;60.21
80321;BME280;69633;47.066;15.450;2023-05-29T06:05:00;97637.59;;;18.81;60.09
80321;BME280;69633;47.066;15.450;2023-05-29T06:07:26;97634.47;;;18.61;60.47
80321;BME280;69633;47.066;15.450;2023-05-29T06:09:53;97631.44;;;18.70;60.55
80321;BME280;69633;47.066;15.450;2023-05-29T06:12:23;97640.66;;;18.76;60.51
80321;BME280;69633;47.066;15.450;2023-05-29T06:14:52;97652.13;;;18.55;60.94
80321;BME280;69633;47.066;15.450;2023-05-29T06:17:19;97637.16;;;18.65;60.66
80321;BME280;69633;47.066;15.450;2023-05-29T06:19:45;97637.94;;;18.65;60.50
80321;BME280;69633;47.066;15.450;2023-05-29T06:22:11;97643.78;;;18.92;59.94
80321;BME280;69633;47.066;15.450;2023-05-29T06:24:37;97637.31;;;19.14;59.03
80321;BME280;69633;47.066;15.450;2023-05-29T06:27:04;97649.63;;;19.26;58.80
80321;BME280;69633;47.066;15.450;2023-05-29T06:29:33;97641.59;;;19.47;57.97
80321;BME280;69633;47.066;15.450;2023-05-29T06:32:00;97643.88;;;19.38;58.25
80321;BME280;69633;47.066;15.450;2023-05-29T06:34:27;97636.22;;;19.61;57.63
80321;BME280;69633;47.066;15.450;2023-05-29T06:36:55;97644.69;;;19.67;57.45
80321;BME280;69633;47.066;15.450;2023-05-29T06:39:20;97642.00;;;19.70;57.60
80321;BME280;69633;47.066;15.450;2023-05-29T06:41:46;97649.69;;;19.58;57.46
80321;BME280;69633;47.066;15.450;2023-05-29T06:44:13;97640.81;;;19.57;57.50
80321;BME280;69633;47.066;15.450;2023-05-29T06:46:38;97646.22;;;19.71;56.66
80321;BME280;69633;47.066;15.450;2023-05-29T06:49:05;97655.47;;;19.77;56.69
80321;BME280;69633;47.066;15.450;2023-05-29T06:51:34;97654.69;;;19.88;56.57
80321;BME280;69633;47.066;15.450;2023-05-29T06:54:02;97651.19;;;20.15;55.63
80321;BME280;69633;47.066;15.450;2023-05-29T06:56:29;97647.69;;;20.22;54.80
80321;BME280;69633;47.066;15.450;2023-05-29T06:58:57;97654.16;;;20.60;54.20
80321;BME280;69633;47.066;15.450;2023-05-29T07:01:24;97640.50;;;20.99;53.09
80321;BME280;69633;47.066;15.450;2023-05-29T07:03:54;97644.75;;;20.93;52.53
80321;BME280;69633;47.066;15.450;2023-05-29T07:06:20;97647.78;;;21.12;52.13
80321;BME280;69633;47.066;15.450;2023-05-29T07:08:47;97644.34;;;21.01;52.47
80321;BME280;69633;47.066;15.450;2023-05-29T07:11:18;97646.63;;;21.10;51.61
80321;BME280;69633;47.066;15.450;2023-05-29T07:13:45;97638.81;;;21.26;51.79
80321;BME280;69633;47.066;15.450;2023-05-29T07:16:10;97644.88;;;21.41;51.07
80321;BME280;69633;47.066;15.450;2023-05-29T07:18:37;97644.66;;;21.73;47.68
80321;BME280;69633;47.066;15.450;2023-05-29T07:21:04;97637.56;;;21.93;47.74
80321;BME280;69633;47.066;15.450;2023-05-29T07:23:29;97640.09;;;22.10;46.61
80321;BME280;69633;47.066;15.450;2023-05-29T07:25:56;97643.34;;;22.32;46.65
80321;BME280;69633;47.066;15.450;2023-05-29T07:28:23;97643.53;;;22.14;46.56
80321;BME280;69633;47.066;15.450;2023-05-29T07:30:50;97645.78;;;22.20;46.57
80321;BME280;69633;47.066;15.450;2023-05-29T07:33:16;97645.91;;;22.05;45.71
80321;BME280;69633;47.066;15.450;2023-05-29T07:35:43;97637.78;;;22.09;45.15
80321;BME280;69633;47.066;15.450;2023-05-29T07:38:11;97644.16;;;22.29;44.30
80321;BME280;69633;47.066;15.450;2023-05-29T07:40:38;97637.56;;;21.93;43.19
80321;BME280;69633;47.066;15.450;2023-05-29T07:43:06;97651.47;;;21.88;44.86
80321;BME280;69633;47.066;15.450;2023-05-29T07:45:34;97645.72;;;22.27;44.44
80321;BME280;69633;47.066;15.450;2023-05-29T07:48:01;97639.84;;;22.69;43.19
80321;BME280;69633;47.066;15.450;2023-05-29T07:50:28;97635.88;;;23.34;42.39
80321;BME280;69633;47.066;15.450;2023-05-29T07:52:53;97638.91;;;23.13;43.05
80321;BME280;69633;47.066;15.450;2023-05-29T07:55:21;97631.38;;;22.63;43.54
80321;BME280;69633;47.066;15.450;2023-05-29T07:57:48;97632.34;;;22.46;44.36
80321;BME280;69633;47.066;15.450;2023-05-29T08:00:16;97626.09;;;22.53;43.32
80321;BME280;69633;47.066;15.450;2023-05-29T08:02:43;97634.16;;;23.17;41.88
80321;BME280;69633;47.066;15.450;2023-05-29T08:05:11;97629.09;;;23.73;41.23
80321;BME280;69633;47.066;15.450;2023-05-29T08:07:48;97629.88;;;23.73;40.70
80321;BME280;69633;47.066;15.450;2023-05-29T08:10:15;97630.78;;;23.63;41.25
80321;BME280;69633;47.066;15.450;2023-05-29T08:12:42;97629.44;;;23.75;41.57
80321;BME280;69633;47.066;15.450;2023-05-29T08:15:09;97625.25;;;24.17;41.05
80321;BME280;69633;47.066;15.450;2023-05-29T08:17:38;97623.88;;;24.48;40.57
80321;BME280;69633;47.066;15.450;2023-05-29T08:20:05;97627.13;;;24.79;40.25
80321;BME280;69633;47.066;15.450;2023-05-29T08:22:34;97630.19;;;24.41;40.51
80321;BME280;69633;47.066;15.450;2023-05-29T08:25:03;97624.44;;;24.39;41.01
80321;BME280;69633;47.066;15.450;2023-05-29T08:27:30;97620.28;;;24.71;40.52
80321;BME280;69633;47.066;15.450;2023-05-29T08:29:59;97628.03;;;24.92;39.96
80321;BME280;69633;47.066;15.450;2023-05-29T08:32:26;97630.19;;;24.81;40.11
80321;BME280;69633;47.066;15.450;2023-05-29T08:34:53;97623.53;;;25.37;39.31
80321;BME280;69633;47.066;15.450;2023-05-29T08:37:20;97620.38;;;24.87;39.91
80321;BME280;69633;47.066;15.450;2023-05-29T08:39:47;97617.56;;;24.71;39.74
80321;BME280;69633;47.066;15.450;2023-05-29T08:42:32;97623.09;;;24.87;39.48
80321;BME280;69633;47.066;15.450;2023-05-29T08:45:03;97622.41;;;25.35;39.45
80321;BME280;69633;47.066;15.450;2023-05-29T08:47:32;97619.38;;;25.49;38.99
80321;BME280;69633;47.066;15.450;2023-05-29T08:50:01;97614.78;;;25.62;38.52
80321;BME280;69633;47.066;15.450;2023-05-29T08:52:33;97617.44;;;25.66;38.54
80321;BME280;69633;47.066;15.450;2023-05-29T08:55:06;97611.63;;;25.47;38.20
80321;BME280;69633;47.066;15.450;2023-05-29T08:57:32;97612.59;;;25.05;38.58
80321;BME280;69633;47.066;15.450;2023-05-29T08:59:58;97607.50;;;24.91;39.38
80321;BME280;69633;47.066;15.450;2023-05-29T09:02:25;97605.75;;;24.81;39.00
80321;BME280;69633;47.066;15.450;2023-05-29T09:04:51;97600.41;;;24.58;39.75
80321;BME280;69633;47.066;15.450;2023-05-29T09:07:20;97601.53;;;25.16;39.09
80321;BME280;69633;47.066;15.450;2023-05-29T09:09:48;97598.03;;;25.31;39.08
80321;BME280;69633;47.066;15.450;2023-05-29T09:12:15;97596.22;;;25.61;38.97
80321;BME280;69633;47.066;15.450;2023-05-29T09:14:44;97601.97;;;25.79;38.49
80321;BME280;69633;47.066;15.450;2023-05-29T09:17:21;97594.69;;;26.33;37.83
80321;BME280;69633;47.066;15.450;2023-05-29T09:19:56;97602.25;;;26.55;37.52
80321;BME280;69633;47.066;15.450;2023-05-29T09:22:23;97594.53;;;26.66;36.81
80321;BME280;69633;47.066;15.450;2023-05-29T09:24:52;97604.59;;;26.69;37.02
80321;BME280;69633;47.066;15.450;2023-05-29T09:27:20;97603.50;;;26.79;36.12
80321;BME280;69633;47.066;15.450;2023-05-29T09:29:46;97609.28;;;26.81;36.60
80321;BME280;69633;47.066;15.450;2023-05-29T09:32:17;97607.13;;;26.34;37.07
80321;BME280;69633;47.066;15.450;2023-05-29T09:34:45;97605.78;;;25.81;37.32
80321;BME280;69633;47.066;15.450;2023-05-29T09:37:11;97599.50;;;25.52;38.05
80321;BME280;69633;47.066;15.450;2023-05-29T09:39:58;97602.19;;;26.13;37.28
80321;BME280;69633;47.066;15.450;2023-05-29T09:42:24;97595.59;;;26.43;36.86
80321;BME280;69633;47.066;15.450;2023-05-29T09:44:52;97596.47;;;26.53;37.14
80321;BME280;69633;47.066;15.450;2023-05-29T09:47:21;97598.41;;;26.39;36.82
80321;BME280;69633;47.066;15.450;2023-05-29T09:49:48;97601.13;;;26.11;37.09
80321;BME280;69633;47.066;15.450;2023-05-29T09:52:14;97596.84;;;25.81;37.74
80321;BME280;69633;47.066;15.450;2023-05-29T09:54:42;97601.31;;;25.87;37.22
80321;BME280;69633;47.066;15.450;2023-05-29T09:57:21;97590.41;;;26.20;36.81
80321;BME280;69633;47.066;15.450;2023-05-29T09:59:55;97591.34;;;26.55;36.68
80321;BME280;69633;47.066;15.450;2023-05-29T10:02:23;97596.22;;;26.34;37.28
80321;BME280;69633;47.066;15.450;2023-05-29T10:04:52;97590.50;;;26.58;36.76
80321;BME280;69633;47.066;15.450;2023-05-29T10:07:39;97585.03;;;26.45;37.17
80321;BME280;69633;47.066;15.450;2023-05-29T10:10:07;97587.28;;;26.05;37.17
80321;BME280;69633;47.066;15.450;2023-05-29T10:12:38;97575.59;;;26.21;37.43
80321;BME280;69633;47.066;15.450;2023-05-29T10:15:11;97587.88;;;25.96;37.29
80321;BME280;69633;47.066;15.450;2023-05-29T10:18:01;97582.53;;;25.93;36.67
80321;BME280;69633;47.066;15.450;2023-05-29T10:20:29;97585.47;;;25.86;37.08
80321;BME280;69633;47.066;15.450;2023-05-29T10:22:56;97582.53;;;25.93;37.40
80321;BME280;69633;47.066;15.450;2023-05-29T10:25:29;97570.13;;;26.50;37.13
80321;BME280;69633;47.066;15.450;2023-05-29T10:27:59;97570.34;;;26.55;36.63
80321;BME280;69633;47.066;15.450;2023-05-29T10:33:49;97575.66;;;26.17;37.15
80321;BME280;69633;47.066;15.450;2023-05-29T10:36:23;97571.44;;;26.16;37.28
80321;BME280;69633;47.066;15.450;2023-05-29T10:38:53;97574.00;;;26.36;37.07
80321;BME280;69633;47.066;15.450;2023-05-29T10:41:38;97570.53;;;26.89;36.07
80321;BME280;69633;47.066;15.450;2023-05-29T10:47:12;97569.91;;;26.57;35.63
80321;BME280;69633;47.066;15.450;2023-05-29T10:49:49;97576.63;;;25.82;36.68
80321;BME280;69633;47.066;15.450;2023-05-29T10:52:18;97568.91;;;26.09;35.75
80321;BME280;69633;47.066;15.450;2023-05-29T10:54:53;97572.63;;;26.15;35.71
80321;BME280;69633;47.066;15.450;2023-05-29T10:57:24;97561.13;;;26.24;35.85
80321;BME280;69633;47.066;15.450;2023-05-29T11:00:07;97557.28;;;26.50;35.59
80321;BME280;69633;47.066;15.450;2023-05-29T11:02:41;97555.81;;;26.33;35.57
80321;BME280;69633;47.066;15.450;2023-05-29T11:05:26;97552.28;;;26.74;35.19
80321;BME280;69633;47.066;15.450;2023-05-29T11:08:15;97543.72;;;26.88;34.63
80321;BME280;69633;47.066;15.450;2023-05-29T11:11:01;97549.56;;;26.61;35.49
80321;BME280;69633;47.066;15.450;2023-05-29T11:13:39;97555.97;;;26.55;35.19
80321;BME280;69633;47.066;15.450;2023-05-29T11:19:03;97551.31;;;26.80;33.75
80321;BME280;69633;47.066;15.450;2023-05-29T11:22:15;97553.31;;;27.65;32.70
80321;BME280;69633;47.066;15.450;2023-05-29T11:24:47;97545.09;;;27.77;32.29
80321;BME280;69633;47.066;15.450;2023-05-29T11:27:14;97544.72;;;27.66;32.69
80321;BME280;69633;47.066;15.450;2023-05-29T11:29:42;97542.91;;;27.85;32.44
80321;BME280;69633;47.066;15.450;2023-05-29T11:32:18;97544.75;;;28.31;31.86
80321;BME280;69633;47.066;15.450;2023-05-29T11:34:46;97544.69;;;28.44;31.47
80321;BME280;69633;47.066;15.450;2023-05-29T11:37:14;97538.00;;;27.80;31.75
80321;BME280;69633;47.066;15.450;2023-05-29T11:39:41;97531.31;;;28.15;31.69
80321;BME280;69633;47.066;15.450;2023-05-29T11:42:18;97538.94;;;27.86;32.52
80321;BME280;69633;47.066;15.450;2023-05-29T11:44:52;97533.38;;;27.90;31.97
80321;BME280;69633;47.066;15.450;2023-05-29T11:47:18;97536.88;;;27.56;32.36
80321;BME280;69633;47.066;15.450;2023-05-29T11:49:48;97528.91;;;28.17;31.75
80321;BME280;69633;47.066;15.450;2023-05-29T11:52:28;97527.16;;;28.85;30.39
80321;BME280;69633;47.066;15.450;2023-05-29T11:55:07;97517.81;;;29.04;29.33
80321;BME280;69633;47.066;15.450;2023-05-29T11:57:39;97522.41;;;29.25;29.25
80321;BME280;69633;47.066;15.450;2023-05-29T12:00:07;97527.06;;;29.65;28.97
80321;BME280;69633;47.066;15.450;2023-05-29T12:02:39;97530.72;;;29.62;29.31
80321;BME280;69633;47.066;15.450;2023-05-29T12:05:10;97526.69;;;28.56;29.35
80321;BME280;69633;47.066;15.450;2023-05-29T12:08:00;97523.06;;;28.90;29.90
80321;BME280;69633;47.066;15.450;2023-05-29T12:11:00;97514.72;;;28.62;30.06
80321;BME280;69633;47.066;15.450;2023-05-29T12:13:37;97516.38;;;28.07;29.52
80321;BME280;69633;47.066;15.450;2023-05-29T12:16:24;97517.56;;;28.06;28.86
80321;BME280;69633;47.066;15.450;2023-05-29T12:19:09;97516.00;;;27.96;29.18
80321;BME280;69633;47.066;15.450;2023-05-29T12:21:44;97504.38;;;28.57;28.97
80321;BME280;69633;47.066;15.450;2023-05-29T12:24:17;97509.41;;;28.99;28.46
80321;BME280;69633;47.066;15.450;2023-05-29T12:27:05;97498.75;;;29.50;28.40
80321;BME280;69633;47.066;15.450;2023-05-29T12:29:35;97501.78;;;30.15;28.31
80321;BME280;69633;47.066;15.450;2023-05-29T12:32:09;97510.78;;;29.98;27.88
80321;BME280;69633;47.066;15.450;2023-05-29T12:34:45;97507.28;;;29.70;28.44
80321;BME280;69633;47.066;15.450;2023-05-29T12:37:22;97498.31;;;29.42;27.55
80321;BME280;69633;47.066;15.450;2023-05-29T12:43:11;97502.88;;;29.63;27.36
80321;BME280;69633;47.066;15.450;2023-05-29T12:45:37;97502.13;;;29.90;27.48
80321;BME280;69633;47.066;15.450;2023-05-29T12:48:06;97492.91;;;30.30;26.55
80321;BME280;69633;47.066;15.450;2023-05-29T12:50:50;97493.00;;;30.02;26.19
80321;BME280;69633;47.066;15.450;2023-05-29T12:53:17;97488.28;;;29.57;27.09
80321;BME280;69633;47.066;15.450;2023-05-29T12:55:46;97486.00;;;30.10;27.34
80321;BME280;69633;47.066;15.450;2023-05-29T12:58:13;97477.69;;;30.47;26.11
80321;BME280;69633;47.066;15.450;2023-05-29T13:00:43;97479.94;;;30.57;25.72
80321;BME280;69633;47.066;15.450;2023-05-29T13:05:39;97473.31;;;32.06;25.02
80321;BME280;69633;47.066;15.450;2023-05-29T13:08:26;97473.88;;;32.25;24.31
80321;BME280;69633;47.066;15.450;2023-05-29T13:10:52;97472.25;;;32.48;23.53
80321;BME280;69633;47.066;15.450;2023-05-29T13:13:20;97474.53;;;32.99;24.24
80321;BME280;69633;47.066;15.450;2023-05-29T13:15:49;97478.28;;;33.16;23.68
80321;BME280;69633;47.066;15.450;2023-05-29T13:18:16;97472.81;;;32.67;23.54
80321;BME280;69633;47.066;15.450;2023-05-29T13:20:42;97484.63;;;32.87;23.28
80321;BME280;69633;47.066;15.450;2023-05-29T13:23:08;97476.31;;;32.52;23.63
80321;BME280;69633;47.066;15.450;2023-05-29T13:25:35;97476.56;;;33.04;23.13
80321;BME280;69633;47.066;15.450;2023-05-29T13:28:02;97472.00;;;33.76;22.65
80321;BME280;69633;47.066;15.450;2023-05-29T13:30:29;97471.72;;;32.79;22.66